createdAt,value
2022-12-14T00:01:25.343Z,-7.45
2022-12-14T00:03:53.265Z,-7.46
2022-12-14T00:06:28.880Z,-7.46
2022-12-14T00:09:03.868Z,-7.43
2022-12-14T00:11:32.079Z,-7.49
2022-12-14T00:14:01.593Z,-7.46
2022-12-14T00:16:30.623Z,-7.51
2022-12-14T00:18:59.334Z,-7.47
2022-12-14T00:21:26.969Z,-7.49
2022-12-14T00:23:54.818Z,-7.45
2022-12-14T00:26:24.286Z,-7.51
2022-12-14T00:28:53.371Z,-7.45
2022-12-14T00:31:21.046Z,-7.51
2022-12-14T00:33:48.463Z,-7.46
2022-12-14T00:36:15.155Z,-7.48
2022-12-14T00:38:42.725Z,-7.55
2022-12-14T00:41:11.026Z,-7.58
2022-12-14T00:43:37.689Z,-7.56
2022-12-14T00:46:04.477Z,-7.62
2022-12-14T00:48:32.026Z,-7.63
2022-12-14T00:50:59.005Z,-7.57
2022-12-14T00:53:25.915Z,-7.60
2022-12-14T00:55:52.932Z,-7.55
2022-12-14T00:58:22.437Z,-7.54
2022-12-14T01:00:59.611Z,-7.64
2022-12-14T01:03:26.763Z,-7.63
2022-12-14T01:05:53.907Z,-7.64
2022-12-14T01:08:20.884Z,-7.61
2022-12-14T01:10:47.644Z,-7.66
2022-12-14T01:13:14.245Z,-7.63
2022-12-14T01:15:40.998Z,-7.68
2022-12-14T01:18:07.733Z,-7.67
2022-12-14T01:20:34.442Z,-7.62
2022-12-14T01:23:01.109Z,-7.58
2022-12-14T01:25:27.773Z,-7.54
2022-12-14T01:27:54.403Z,-7.57
2022-12-14T01:30:21.269Z,-7.60
2022-12-14T01:32:47.876Z,-7.59
2022-12-14T01:35:14.780Z,-7.58
2022-12-14T01:37:41.506Z,-7.56
2022-12-14T01:40:08.678Z,-7.62
2022-12-14T01:42:38.807Z,-7.60
2022-12-14T01:45:06.483Z,-7.59
2022-12-14T01:47:44.454Z,-7.59
2022-12-14T01:50:23.310Z,-7.66
2022-12-14T01:52:54.298Z,-7.66
2022-12-14T01:55:33.170Z,-7.66
2022-12-14T01:58:07.358Z,-7.63
2022-12-14T02:00:34.114Z,-7.72
2022-12-14T02:03:16.563Z,-7.78
2022-12-14T02:05:52.312Z,-7.80
2022-12-14T02:08:20.900Z,-7.75
2022-12-14T02:10:48.758Z,-7.76
2022-12-14T02:13:24.096Z,-7.74
2022-12-14T02:15:51.935Z,-7.68
2022-12-14T02:18:24.017Z,-7.63
2022-12-14T02:21:03.202Z,-7.58
2022-12-14T02:23:51.191Z,-7.47
2022-12-14T02:26:52.412Z,-7.51
2022-12-14T02:29:25.112Z,-7.50
2022-12-14T02:32:04.734Z,-7.56
2022-12-14T02:34:49.360Z,-7.56
2022-12-14T02:37:25.268Z,-7.57
2022-12-14T02:40:10.808Z,-7.59
2022-12-14T02:42:41.554Z,-7.56
2022-12-14T02:45:11.832Z,-7.57
2022-12-14T02:48:15.314Z,-7.49
2022-12-14T02:51:01.597Z,-7.47
2022-12-14T02:53:50.992Z,-7.42
2022-12-14T02:56:22.714Z,-7.44
2022-12-14T02:58:50.727Z,-7.41
2022-12-14T03:01:22.671Z,-7.39
2022-12-14T03:03:49.505Z,-7.47
2022-12-14T03:06:26.268Z,-7.44
2022-12-14T03:09:14.054Z,-7.48
2022-12-14T03:11:49.269Z,-7.49
2022-12-14T03:14:23.162Z,-7.47
2022-12-14T03:16:52.158Z,-7.49
2022-12-14T03:19:38.976Z,-7.50
2022-12-14T03:22:15.249Z,-7.49
2022-12-14T03:24:46.443Z,-7.49
2022-12-14T03:27:24.496Z,-7.58
2022-12-14T03:29:59.341Z,-7.53
2022-12-14T03:32:29.614Z,-7.54
2022-12-14T03:35:05.236Z,-7.58
2022-12-14T03:37:47.714Z,-7.57
2022-12-14T03:40:22.905Z,-7.49
2022-12-14T03:43:08.444Z,-7.70
2022-12-14T03:45:47.179Z,-7.74
2022-12-14T03:48:32.420Z,-7.80
2022-12-14T03:51:08.932Z,-7.83
2022-12-14T03:53:45.364Z,-7.91
2022-12-14T03:56:37.093Z,-8.02
2022-12-14T03:59:03.794Z,-8.14
2022-12-14T04:01:39.129Z,-8.29
2022-12-14T04:04:15.792Z,-8.39
2022-12-14T04:06:46.064Z,-8.50
2022-12-14T04:09:20.222Z,-8.53
2022-12-14T04:12:25.001Z,-8.57
2022-12-14T04:15:26.068Z,-8.58
2022-12-14T04:18:14.993Z,-8.60
2022-12-14T04:20:47.930Z,-8.54
2022-12-14T04:23:41.951Z,-8.55
2022-12-14T04:26:14.457Z,-8.64
2022-12-14T04:29:13.593Z,-8.60
2022-12-14T04:31:47.883Z,-8.67
2022-12-14T04:34:18.932Z,-8.62
2022-12-14T04:37:02.245Z,-8.63
2022-12-14T04:39:38.506Z,-8.59
2022-12-14T04:42:08.407Z,-8.57
2022-12-14T04:44:42.483Z,-8.65
2022-12-14T04:47:11.631Z,-8.70
2022-12-14T04:49:50.014Z,-8.67
2022-12-14T04:52:36.280Z,-8.61
2022-12-14T04:55:14.926Z,-8.55
2022-12-14T04:57:56.315Z,-8.58
2022-12-14T05:00:23.077Z,-8.51
2022-12-14T05:03:16.495Z,-8.42
2022-12-14T05:05:56.642Z,-8.43
2022-12-14T05:08:47.445Z,-8.40
2022-12-14T05:11:51.954Z,-8.36
2022-12-14T05:14:15.454Z,-8.31
2022-12-14T05:16:42.321Z,-8.29
2022-12-14T05:19:15.853Z,-8.24
2022-12-14T05:21:47.947Z,-8.26
2022-12-14T05:24:16.066Z,-8.25
2022-12-14T05:26:44.111Z,-8.28
2022-12-14T05:29:11.215Z,-8.24
2022-12-14T05:31:38.126Z,-8.28
2022-12-14T05:34:04.951Z,-8.32
2022-12-14T05:36:31.605Z,-8.21
2022-12-14T05:38:58.286Z,-8.20
2022-12-14T05:41:24.969Z,-8.21
2022-12-14T05:43:51.550Z,-8.22
2022-12-14T05:46:18.565Z,-8.19
2022-12-14T05:48:49.130Z,-8.17
2022-12-14T05:51:16.432Z,-8.13
2022-12-14T05:53:43.179Z,-8.15
2022-12-14T05:56:11.036Z,-8.14
2022-12-14T05:58:38.213Z,-8.14
2022-12-14T06:01:07.974Z,-8.09
2022-12-14T06:03:34.880Z,-8.05
2022-12-14T06:06:06.797Z,-8.09
2022-12-14T06:08:35.314Z,-8.16
2022-12-14T06:11:19.541Z,-8.01
2022-12-14T06:13:46.493Z,-7.74
2022-12-14T06:16:22.019Z,-6.88
2022-12-14T06:18:50.008Z,-6.31
2022-12-14T06:21:18.716Z,-5.90
2022-12-14T06:23:45.794Z,-5.64
2022-12-14T06:26:13.936Z,-5.46
2022-12-14T06:28:41.341Z,-5.37
2022-12-14T06:31:13.906Z,-5.14
2022-12-14T06:33:40.715Z,-5.01
2022-12-14T06:36:07.612Z,-4.99
2022-12-14T06:38:35.675Z,-4.83
2022-12-14T06:41:08.496Z,-4.78
2022-12-14T06:43:35.187Z,-4.71
2022-12-14T06:46:02.214Z,-4.73
2022-12-14T06:48:28.886Z,-4.62
2022-12-14T06:51:01.041Z,-4.63
2022-12-14T06:53:27.995Z,-4.55
2022-12-14T06:55:54.903Z,-4.44
2022-12-14T06:58:21.501Z,-4.45
2022-12-14T07:00:48.137Z,-4.44
2022-12-14T07:03:14.851Z,-4.45
2022-12-14T07:05:45.792Z,-4.53
2022-12-14T07:08:15.519Z,-4.50
2022-12-14T07:10:42.159Z,-4.62
2022-12-14T07:13:08.869Z,-4.94
2022-12-14T07:15:35.554Z,-5.38
2022-12-14T07:18:02.164Z,-5.78
2022-12-14T07:20:28.917Z,-5.90
2022-12-14T07:22:55.567Z,-5.87
2022-12-14T07:25:22.191Z,-5.95
2022-12-14T07:27:48.867Z,-6.01
2022-12-14T07:30:15.543Z,-6.02
2022-12-14T07:32:42.246Z,-6.01
2022-12-14T07:35:14.764Z,-6.03
2022-12-14T07:37:43.288Z,-6.01
2022-12-14T07:40:15.639Z,-5.97
2022-12-14T07:42:42.252Z,-5.88
2022-12-14T07:45:09.343Z,-5.83
2022-12-14T07:47:35.944Z,-5.72
2022-12-14T07:50:02.611Z,-5.54
2022-12-14T07:52:34.199Z,-5.36
2022-12-14T07:55:04.208Z,-5.18
2022-12-14T07:57:30.860Z,-5.00
2022-12-14T07:59:57.784Z,-5.05
2022-12-14T08:02:24.598Z,-4.95
2022-12-14T08:04:51.291Z,-4.91
2022-12-14T08:07:18.908Z,-4.93
2022-12-14T08:09:45.370Z,-4.79
2022-12-14T08:12:12.019Z,-4.66
2022-12-14T08:14:38.623Z,-4.56
2022-12-14T08:17:05.270Z,-4.58
2022-12-14T08:19:31.915Z,-4.61
2022-12-14T08:21:58.523Z,-4.64
2022-12-14T08:24:25.195Z,-4.65
2022-12-14T08:26:51.800Z,-4.70
2022-12-14T08:29:18.960Z,-4.75
2022-12-14T08:31:45.736Z,-4.75
2022-12-14T08:34:12.417Z,-4.64
2022-12-14T08:36:39.262Z,-4.65
2022-12-14T08:39:08.260Z,-4.61
2022-12-14T08:41:35.224Z,-4.61
2022-12-14T08:44:03.118Z,-4.68
2022-12-14T08:46:31.678Z,-4.75
2022-12-14T08:48:58.585Z,-4.78
2022-12-14T08:51:26.649Z,-4.71
2022-12-14T08:53:54.262Z,-4.70
2022-12-14T08:56:23.975Z,-4.62
2022-12-14T08:58:50.763Z,-4.55
2022-12-14T09:01:28.374Z,-4.52
2022-12-14T09:04:02.849Z,-4.67
2022-12-14T09:06:29.705Z,-4.72
2022-12-14T09:08:57.385Z,-4.67
2022-12-14T09:11:24.055Z,-4.71
2022-12-14T09:13:54.692Z,-4.80
2022-12-14T09:16:23.347Z,-4.71
2022-12-14T09:18:50.619Z,-4.72
2022-12-14T09:21:18.209Z,-4.64
2022-12-14T09:23:46.002Z,-4.60
2022-12-14T09:26:18.060Z,-4.57
2022-12-14T09:28:53.611Z,-4.63
2022-12-14T09:31:23.166Z,-4.49
2022-12-14T09:33:50.324Z,-4.44
2022-12-14T09:36:19.576Z,-4.38
2022-12-14T09:38:50.913Z,-4.35
2022-12-14T09:41:27.894Z,-4.38
2022-12-14T09:44:24.963Z,-4.38
2022-12-14T09:47:12.189Z,-4.29
2022-12-14T09:49:47.820Z,-4.28
2022-12-14T09:52:19.224Z,-4.30
2022-12-14T09:54:49.727Z,-4.21
2022-12-14T09:57:24.562Z,-4.03
2022-12-14T09:59:53.551Z,-3.97
2022-12-14T10:02:33.824Z,-3.90
2022-12-14T10:05:41.085Z,-3.90
2022-12-14T10:08:34.409Z,-3.94
2022-12-14T10:11:04.196Z,-4.08
2022-12-14T10:13:52.494Z,-3.88
2022-12-14T10:16:36.548Z,-3.73
2022-12-14T10:19:17.310Z,-3.70
2022-12-14T10:22:09.981Z,-3.76
2022-12-14T10:24:51.196Z,-3.80
2022-12-14T10:27:26.850Z,-3.76
2022-12-14T10:30:01.538Z,-3.74
2022-12-14T10:32:45.877Z,-3.67
2022-12-14T10:35:15.574Z,-3.62
2022-12-14T10:37:51.501Z,-3.72
2022-12-14T10:40:33.687Z,-3.67
2022-12-14T10:43:17.402Z,-3.71
2022-12-14T10:46:22.751Z,-3.60
2022-12-14T10:48:52.771Z,-3.79
2022-12-14T10:51:27.231Z,-3.84
2022-12-14T10:54:00.733Z,-3.93
2022-12-14T10:56:33.662Z,-3.92
2022-12-14T10:59:18.553Z,-3.99
2022-12-14T11:01:48.278Z,-3.98
2022-12-14T11:04:44.942Z,-3.97
2022-12-14T11:07:15.932Z,-3.93
2022-12-14T11:09:43.288Z,-3.96
2022-12-14T11:12:23.457Z,-3.88
2022-12-14T11:15:06.664Z,-3.71
2022-12-14T11:17:35.624Z,-3.67
2022-12-14T11:20:06.663Z,-3.50
2022-12-14T11:22:48.072Z,-3.40
2022-12-14T11:25:34.952Z,-3.27
2022-12-14T11:28:37.411Z,-3.14
2022-12-14T11:31:07.123Z,-3.04
2022-12-14T11:33:54.593Z,-3.02
2022-12-14T11:36:28.190Z,-2.99
2022-12-14T11:39:13.928Z,-2.81
2022-12-14T11:42:02.228Z,-2.69
2022-12-14T11:44:36.791Z,-2.50
2022-12-14T11:47:12.325Z,-2.65
2022-12-14T11:49:38.874Z,-2.54
2022-12-14T11:52:05.472Z,-2.52
2022-12-14T11:54:32.966Z,-2.61
2022-12-14T11:57:10.415Z,-2.70
2022-12-14T11:59:47.120Z,-2.59
2022-12-14T12:02:30.205Z,-2.47
2022-12-14T12:05:08.345Z,-2.28
2022-12-14T12:07:42.399Z,-2.15
2022-12-14T12:10:25.561Z,-2.02
2022-12-14T12:13:04.091Z,-1.98
2022-12-14T12:15:43.048Z,-1.95
2022-12-14T12:18:22.563Z,-2.00
2022-12-14T12:21:01.219Z,-2.02
2022-12-14T12:23:57.911Z,-2.17
2022-12-14T12:26:33.055Z,-2.11
2022-12-14T12:29:04.796Z,-2.35
2022-12-14T12:32:27.185Z,-2.32
2022-12-14T12:34:53.601Z,-2.42
2022-12-14T12:37:29.888Z,-2.30
2022-12-14T12:40:07.835Z,-2.33
2022-12-14T12:42:42.455Z,-2.28
2022-12-14T12:45:44.725Z,-2.39
2022-12-14T12:48:14.863Z,-2.22
2022-12-14T12:50:50.173Z,-2.40
2022-12-14T12:53:39.850Z,-2.31
2022-12-14T12:56:48.123Z,-2.48
2022-12-14T12:59:26.755Z,-2.52
2022-12-14T13:01:57.825Z,-2.48
2022-12-14T13:04:38.198Z,-2.38
2022-12-14T13:07:19.112Z,-2.75
2022-12-14T13:10:03.432Z,-2.88
2022-12-14T13:12:48.026Z,-2.89
2022-12-14T13:15:23.689Z,-2.93
2022-12-14T13:18:41.129Z,-2.94
2022-12-14T13:21:42.358Z,-2.99
2022-12-14T13:24:16.758Z,-3.00
2022-12-14T13:26:59.536Z,-2.96
2022-12-14T13:29:47.813Z,-2.80
2022-12-14T13:33:07.722Z,-2.84
2022-12-14T13:36:03.699Z,-2.68
2022-12-14T13:38:56.702Z,-2.61
2022-12-14T13:41:47.801Z,-2.87
2022-12-14T13:44:14.459Z,-2.75
2022-12-14T13:46:41.928Z,-2.67
2022-12-14T13:49:20.623Z,-2.78
2022-12-14T13:51:50.024Z,-2.69
2022-12-14T13:54:27.945Z,-2.72
2022-12-14T13:57:06.809Z,-2.74
2022-12-14T13:59:38.282Z,-2.78
2022-12-14T14:02:06.577Z,-2.80
2022-12-14T14:04:35.806Z,-2.89
2022-12-14T14:07:24.200Z,-2.83
2022-12-14T14:09:57.621Z,-2.86
2022-12-14T14:12:24.228Z,-2.90
2022-12-14T14:15:03.183Z,-2.87
2022-12-14T14:17:43.454Z,-2.91
2022-12-14T14:20:44.644Z,-2.87
2022-12-14T14:23:14.282Z,-2.95
2022-12-14T14:25:43.567Z,-3.00
2022-12-14T14:28:20.714Z,-3.03
2022-12-14T14:30:56.802Z,-3.08
2022-12-14T14:33:47.130Z,-3.12
2022-12-14T14:36:35.083Z,-3.17
2022-12-14T14:39:47.059Z,-3.26
2022-12-14T14:42:19.866Z,-3.42
2022-12-14T14:44:56.103Z,-3.39
2022-12-14T14:47:40.336Z,-3.41
2022-12-14T14:50:14.304Z,-3.40
2022-12-14T14:52:40.913Z,-3.38
2022-12-14T14:55:51.948Z,-3.54
2022-12-14T14:58:22.422Z,-3.50
2022-12-14T15:01:20.240Z,-3.55
2022-12-14T15:04:06.119Z,-3.63
2022-12-14T15:06:39.690Z,-3.70
2022-12-14T15:09:09.365Z,-3.77
2022-12-14T15:11:48.877Z,-3.75
2022-12-14T15:14:39.061Z,-3.74
2022-12-14T15:17:18.471Z,-3.73
2022-12-14T15:19:56.175Z,-3.71
2022-12-14T15:22:26.264Z,-3.74
2022-12-14T15:24:55.967Z,-3.76
2022-12-14T15:27:28.619Z,-3.75
2022-12-14T15:30:17.621Z,-3.74
2022-12-14T15:32:52.336Z,-3.74
2022-12-14T15:35:24.522Z,-3.73
2022-12-14T15:37:59.689Z,-3.78
2022-12-14T15:40:30.568Z,-3.77
2022-12-14T15:42:59.877Z,-3.82
2022-12-14T15:45:32.357Z,-3.78
2022-12-14T15:48:14.489Z,-3.81
2022-12-14T15:50:46.283Z,-3.82
2022-12-14T15:53:38.237Z,-3.78
2022-12-14T15:56:22.426Z,-3.77
2022-12-14T15:58:49.445Z,-3.78
2022-12-14T16:01:23.886Z,-3.76
2022-12-14T16:03:56.744Z,-3.76
2022-12-14T16:06:26.549Z,-3.75
2022-12-14T16:09:17.048Z,-3.75
2022-12-14T16:11:46.232Z,-3.74
2022-12-14T16:14:44.300Z,-3.74
2022-12-14T16:17:14.525Z,-3.76
2022-12-14T16:19:58.468Z,-3.78
2022-12-14T16:22:31.369Z,-3.82
2022-12-14T16:25:06.204Z,-3.80
2022-12-14T16:27:36.850Z,-3.88
2022-12-14T16:30:21.957Z,-3.89
2022-12-14T16:33:03.509Z,-3.88
2022-12-14T16:35:34.061Z,-3.87
2022-12-14T16:38:07.070Z,-3.80
2022-12-14T16:40:39.464Z,-3.84
2022-12-14T16:43:23.683Z,-3.87
2022-12-14T16:46:05.733Z,-3.83
2022-12-14T16:48:35.943Z,-3.83
2022-12-14T16:51:44.364Z,-3.75
2022-12-14T16:54:24.145Z,-3.79
2022-12-14T16:56:55.898Z,-3.80
2022-12-14T16:59:27.264Z,-3.77
2022-12-14T17:01:54.361Z,-3.77
2022-12-14T17:04:21.744Z,-3.78
2022-12-14T17:06:55.989Z,-3.77
2022-12-14T17:09:25.408Z,-3.75
2022-12-14T17:11:55.062Z,-3.78
2022-12-14T17:14:21.939Z,-3.74
2022-12-14T17:16:52.827Z,-3.78
2022-12-14T17:19:30.202Z,-3.86
2022-12-14T17:21:57.647Z,-3.90
2022-12-14T17:24:24.347Z,-3.98
2022-12-14T17:26:51.849Z,-3.97
2022-12-14T17:29:20.958Z,-3.91
2022-12-14T17:31:50.315Z,-3.87
2022-12-14T17:34:17.922Z,-3.84
2022-12-14T17:36:45.504Z,-3.81
2022-12-14T17:39:12.099Z,-3.78
2022-12-14T17:41:45.308Z,-3.81
2022-12-14T17:44:17.187Z,-3.79
2022-12-14T17:46:45.352Z,-3.78
2022-12-14T17:49:16.312Z,-3.84
2022-12-14T17:51:46.264Z,-3.88
2022-12-14T17:54:19.075Z,-3.92
2022-12-14T17:56:46.637Z,-3.89
2022-12-14T17:59:13.588Z,-3.85
2022-12-14T18:01:41.165Z,-3.84
2022-12-14T18:04:08.218Z,-3.83
2022-12-14T18:06:35.322Z,-3.84
2022-12-14T18:09:02.028Z,-3.85
2022-12-14T18:11:28.814Z,-3.84
2022-12-14T18:13:55.931Z,-3.86
2022-12-14T18:16:24.426Z,-3.87
2022-12-14T18:18:54.251Z,-3.89
2022-12-14T18:21:24.058Z,-3.88
2022-12-14T18:23:51.063Z,-3.82
2022-12-14T18:26:21.200Z,-3.80
2022-12-14T18:28:49.620Z,-3.75
2022-12-14T18:31:36.080Z,-3.75
2022-12-14T18:34:03.315Z,-3.78
2022-12-14T18:36:29.904Z,-3.75
2022-12-14T18:38:57.309Z,-3.81
2022-12-14T18:41:25.901Z,-3.80
2022-12-14T18:43:54.362Z,-3.89
2022-12-14T18:46:21.166Z,-3.89
2022-12-14T18:48:48.113Z,-3.88
2022-12-14T18:51:17.097Z,-3.89
2022-12-14T18:53:43.766Z,-3.83
2022-12-14T18:56:11.883Z,-3.89
2022-12-14T18:58:42.029Z,-3.89
2022-12-14T19:01:14.519Z,-3.95
2022-12-14T19:03:41.903Z,-3.90
2022-12-14T19:08:59.226Z,-4.04
2022-12-14T19:11:34.899Z,-4.11
2022-12-14T19:14:02.261Z,-4.24
2022-12-14T19:16:29.432Z,-4.24
2022-12-14T19:18:57.034Z,-4.37
2022-12-14T19:21:26.772Z,-4.38
2022-12-14T19:23:53.905Z,-4.48
2022-12-14T19:26:21.314Z,-4.63
2022-12-14T19:28:47.956Z,-4.73
2022-12-14T19:31:14.647Z,-4.80
2022-12-14T19:33:41.327Z,-4.92
2022-12-14T19:36:08.729Z,-5.03
2022-12-14T19:38:36.201Z,-5.09
2022-12-14T19:41:11.899Z,-5.15
2022-12-14T19:43:38.573Z,-5.26
2022-12-14T19:46:06.960Z,-5.33
2022-12-14T19:48:33.922Z,-5.28
2022-12-14T19:51:10.572Z,-5.34
2022-12-14T19:53:38.118Z,-5.41
2022-12-14T19:56:05.383Z,-5.32
2022-12-14T19:58:32.467Z,-5.39
2022-12-14T20:00:59.323Z,-5.36
2022-12-14T20:03:26.493Z,-5.42
2022-12-14T20:05:58.825Z,-5.40
2022-12-14T20:08:29.655Z,-5.54
2022-12-14T20:10:57.248Z,-5.55
2022-12-14T20:13:26.057Z,-5.54
2022-12-14T20:15:58.381Z,-5.60
2022-12-14T20:18:26.187Z,-5.59
2022-12-14T20:20:53.063Z,-5.72
2022-12-14T20:23:21.687Z,-5.73
2022-12-14T20:25:49.004Z,-5.68
2022-12-14T20:28:15.788Z,-5.64
2022-12-14T20:30:47.760Z,-5.58
2022-12-14T20:33:14.739Z,-5.64
2022-12-14T20:35:41.371Z,-5.62
2022-12-14T20:38:08.271Z,-5.62
2022-12-14T20:40:38.977Z,-5.64
2022-12-14T20:43:07.082Z,-5.58
2022-12-14T20:45:41.460Z,-5.60
2022-12-14T20:48:08.426Z,-5.61
2022-12-14T20:50:39.041Z,-5.66
2022-12-14T20:53:06.578Z,-5.69
2022-12-14T20:55:33.734Z,-5.76
2022-12-14T20:58:00.558Z,-5.75
2022-12-14T21:00:27.804Z,-5.77
2022-12-14T21:02:54.440Z,-5.74
2022-12-14T21:05:21.140Z,-5.76
2022-12-14T21:07:48.131Z,-5.72
2022-12-14T21:10:14.766Z,-5.74
2022-12-14T21:12:41.347Z,-5.77
2022-12-14T21:15:08.593Z,-5.79
2022-12-14T21:17:35.348Z,-5.82
2022-12-14T21:20:05.428Z,-5.93
2022-12-14T21:22:32.223Z,-5.94
2022-12-14T21:25:04.186Z,-5.96
2022-12-14T21:27:32.532Z,-5.93
2022-12-14T21:30:00.772Z,-5.80
2022-12-14T21:32:27.729Z,-5.77
2022-12-14T21:34:54.404Z,-5.79
2022-12-14T21:37:22.187Z,-5.80
2022-12-14T21:39:54.478Z,-5.84
2022-12-14T21:42:25.815Z,-5.90
2022-12-14T21:44:53.915Z,-5.99
2022-12-14T21:47:25.009Z,-6.07
2022-12-14T21:49:51.748Z,-6.11
2022-12-14T21:52:21.602Z,-6.16
2022-12-14T21:54:48.374Z,-6.16
2022-12-14T21:57:40.211Z,-6.19
2022-12-14T22:00:09.392Z,-6.21
2022-12-14T22:02:36.114Z,-6.19
2022-12-14T22:05:02.881Z,-6.01
2022-12-14T22:07:31.866Z,-5.94
2022-12-14T22:09:58.866Z,-5.99
2022-12-14T22:12:26.027Z,-6.04
2022-12-14T22:14:52.900Z,-6.11
2022-12-14T22:17:20.000Z,-6.18
2022-12-14T22:19:46.897Z,-6.24
2022-12-14T22:22:15.222Z,-6.28
2022-12-14T22:24:42.282Z,-6.25
2022-12-14T22:27:11.022Z,-6.31
2022-12-14T22:29:37.825Z,-6.37
2022-12-14T22:32:05.234Z,-6.45
2022-12-14T22:34:32.192Z,-6.50
2022-12-14T22:36:59.254Z,-6.46
2022-12-14T22:39:26.143Z,-6.48
2022-12-14T22:41:53.049Z,-6.33
2022-12-14T22:44:19.961Z,-6.32
2022-12-14T22:46:46.786Z,-6.39
2022-12-14T22:49:18.695Z,-6.39
2022-12-14T22:51:46.031Z,-6.39
2022-12-14T22:54:21.268Z,-6.47
2022-12-14T22:56:54.883Z,-6.51
2022-12-14T22:59:49.631Z,-6.51
2022-12-14T23:02:16.571Z,-6.56
2022-12-14T23:04:43.429Z,-6.51
2022-12-14T23:07:10.241Z,-6.53
2022-12-14T23:09:55.485Z,-6.60
2022-12-14T23:12:40.937Z,-6.67
2022-12-14T23:15:26.501Z,-6.73
2022-12-14T23:18:20.046Z,-6.80
2022-12-14T23:21:05.610Z,-6.83
2022-12-14T23:23:50.801Z,-6.86
2022-12-14T23:26:35.957Z,-6.94
2022-12-14T23:29:21.574Z,-6.94
2022-12-14T23:32:06.422Z,-6.89
2022-12-14T23:34:51.455Z,-6.85
2022-12-14T23:37:36.357Z,-6.68
2022-12-14T23:40:21.982Z,-6.62
2022-12-14T23:43:07.506Z,-6.54
2022-12-14T23:45:52.471Z,-6.45
2022-12-14T23:48:37.642Z,-6.25
2022-12-14T23:51:23.156Z,-6.21
2022-12-14T23:54:08.212Z,-6.00
2022-12-14T23:56:53.967Z,-6.02
2022-12-14T23:59:39.077Z,-6.08
